Avery, Idaho
Current Conditions -  °F | °C
As of 3:58 PM on Sunday 23 Nov 2014 (Local Time) from KMLP Reporting Station
Light Snow Light Snow  
Wind Chill: 17°   Ceiling: 200
Heat Index: 27°   Visibility: 1mi
Dew Point: 24°   Wind: 10mph
Humidity: 89%   Direction: 240°WSW
Pressure: 29.87"   Gusts: 24mph
Location:  47.25°N, 115.81°W
Report Text: KMLP 232358Z AUTO 24009G21KT 210V340 1SM -SN BR BKN002 OVC009 M03/M04 A2987 RMK AO2 P0000 T10281044
Loading
Personal Weather Stations






























Interactive Weather Map New forecast layout! Learn more

10-Day Weather Forecast

Advertisements
Track Severe Weather on mobile